Time;durP1;ratioP1;P1;durP2;ratioP2;P2;SDS_P1;SDS_P2;PMS_P1;PMS_P2;Temp;Humidity;BMP_temperature;BMP_pressure;BME280_temperature;BME280_humidity;BME280_pressure;Samples;Min_cycle;Max_cycle;Signal;HPM_P1;HPM_P2
2023/01/14 00:02:18;;;;;;;25.48;3.78;;;7.70;99.90;;;;;;5060517;28;20128;-53
2023/01/14 00:04:45;;;;;;;27.73;3.53;;;7.60;99.90;;;;;;5069784;28;20076;-43
2023/01/14 00:07:13;;;;;;;21.65;3.38;;;7.60;99.90;;;;;;5068979;28;20146;-50
2023/01/14 00:09:40;;;;;;;25.88;3.50;;;7.60;99.90;;;;;;5048506;28;20054;-51
2023/01/14 00:12:07;;;;;;;24.13;3.65;;;7.60;99.90;;;;;;5052340;28;20080;-52
2023/01/14 00:14:34;;;;;;;18.33;3.35;;;7.50;99.90;;;;;;5051089;28;20578;-53
2023/01/14 00:17:01;;;;;;;27.52;3.78;;;7.60;99.90;;;;;;5052157;28;20061;-47
2023/01/14 00:19:28;;;;;;;23.20;2.97;;;7.50;99.90;;;;;;5039809;28;20155;-50
2023/01/14 00:21:55;;;;;;;20.75;3.50;;;7.50;99.90;;;;;;5049473;28;20496;-53
2023/01/14 00:24:23;;;;;;;24.88;3.35;;;7.50;99.90;;;;;;5059726;28;20045;-52
2023/01/14 00:26:51;;;;;;;23.33;3.92;;;7.50;99.90;;;;;;5040060;28;20446;-55
2023/01/14 00:29:19;;;;;;;23.15;3.90;;;7.50;99.90;;;;;;5050886;28;20075;-55
2023/01/14 00:31:46;;;;;;;19.73;3.08;;;7.50;99.90;;;;;;5071052;28;20419;-55
2023/01/14 00:34:13;;;;;;;21.35;3.60;;;7.50;99.90;;;;;;5070874;28;20106;-50
2023/01/14 00:36:40;;;;;;;20.25;3.78;;;7.50;99.90;;;;;;5051490;28;20055;-50
2023/01/14 00:39:06;;;;;;;26.77;3.90;;;7.50;99.90;;;;;;5053231;28;20083;-56
2023/01/14 00:41:35;;;;;;;32.50;3.83;;;7.50;99.90;;;;;;5071346;28;20044;-51
2023/01/14 00:44:01;;;;;;;21.88;3.20;;;7.50;99.90;;;;;;5055020;28;20084;-56
2023/01/14 00:46:29;;;;;;;26.08;3.92;;;7.50;99.90;;;;;;5052460;28;20091;-56
2023/01/14 00:48:56;;;;;;;24.08;3.75;;;7.50;99.90;;;;;;5054065;28;20052;-57
2023/01/14 00:51:23;;;;;;;24.63;3.47;;;7.50;99.90;;;;;;5062010;28;20125;-56
2023/01/14 00:53:49;;;;;;;22.70;3.42;;;7.50;99.90;;;;;;5069431;28;20503;-57
2023/01/14 00:56:17;;;;;;;24.85;3.30;;;7.50;99.90;;;;;;5071165;28;20408;-57
2023/01/14 00:58:45;;;;;;;25.70;3.13;;;7.50;99.90;;;;;;5071001;28;20183;-56
2023/01/14 01:01:12;;;;;;;29.15;4.10;;;7.40;99.90;;;;;;5070644;28;20504;-57
2023/01/14 01:03:40;;;;;;;22.17;3.40;;;7.40;99.90;;;;;;5051963;28;20110;-58
2023/01/14 01:06:07;;;;;;;25.83;3.72;;;7.40;99.90;;;;;;5054749;28;20076;-58
2023/01/14 01:08:33;;;;;;;26.98;3.50;;;7.40;99.90;;;;;;5056264;28;20106;-56
2023/01/14 01:11:00;;;;;;;17.45;2.70;;;7.40;99.90;;;;;;5073396;28;20129;-57
2023/01/14 01:13:27;;;;;;;21.92;3.08;;;7.40;99.90;;;;;;5055807;28;20132;-58
2023/01/14 01:16:00;;;;;;;19.67;3.13;;;7.40;99.90;;;;;;5076034;28;20435;-56
2023/01/14 01:18:26;;;;;;;24.63;3.97;;;7.40;99.90;;;;;;5072589;28;20068;-56
2023/01/14 01:21:01;;;;;;;18.23;3.20;;;7.40;99.90;;;;;;5074759;28;20098;-59
2023/01/14 01:23:28;;;;;;;27.60;4.15;;;7.40;99.90;;;;;;5050106;28;20081;-58
2023/01/14 01:25:59;;;;;;;18.52;3.08;;;7.40;99.90;;;;;;5056253;28;20061;-58
2023/01/14 01:28:26;;;;;;;17.25;2.92;;;7.30;99.90;;;;;;5072086;28;20110;-53
2023/01/14 01:30:52;;;;;;;23.92;3.40;;;7.30;99.90;;;;;;5061623;28;20099;-58
2023/01/14 01:33:21;;;;;;;24.83;2.85;;;7.30;99.90;;;;;;5074216;28;20135;-58
2023/01/14 01:35:49;;;;;;;21.95;3.05;;;7.40;99.90;;;;;;5055633;28;20126;-61
2023/01/14 01:38:15;;;;;;;17.38;2.90;;;7.30;99.90;;;;;;5068976;28;20045;-59
2023/01/14 01:40:42;;;;;;;30.90;3.72;;;7.30;99.90;;;;;;5059891;28;20123;-51
2023/01/14 01:43:12;;;;;;;26.60;3.55;;;7.40;99.90;;;;;;5052708;28;20045;-60
2023/01/14 01:45:45;;;;;;;30.17;3.65;;;7.40;99.90;;;;;;5054354;28;20140;-59
2023/01/14 01:48:15;;;;;;;22.50;3.40;;;7.40;99.90;;;;;;5056213;28;20093;-54
2023/01/14 01:50:43;;;;;;;20.23;3.30;;;7.40;99.90;;;;;;5059769;28;20420;-58
2023/01/14 01:53:10;;;;;;;24.60;3.78;;;7.40;99.90;;;;;;5055365;28;20044;-58
2023/01/14 01:55:38;;;;;;;18.33;3.45;;;7.40;99.90;;;;;;5056300;28;20133;-58
2023/01/14 01:58:05;;;;;;;29.27;4.20;;;7.40;99.90;;;;;;5073633;28;20460;-58
2023/01/14 02:00:32;;;;;;;25.10;3.65;;;7.40;99.90;;;;;;5055996;28;20049;-57
2023/01/14 02:03:00;;;;;;;23.63;3.70;;;7.40;99.90;;;;;;5054060;28;20125;-54
2023/01/14 02:05:27;;;;;;;21.92;3.33;;;7.40;99.90;;;;;;5055721;28;20110;-58
2023/01/14 02:07:56;;;;;;;20.73;3.42;;;7.40;99.90;;;;;;5064076;28;20084;-57
2023/01/14 02:10:23;;;;;;;30.83;3.47;;;7.40;99.90;;;;;;5072242;28;20076;-57
2023/01/14 02:12:59;;;;;;;31.35;4.20;;;7.40;99.90;;;;;;5053462;28;20087;-57
2023/01/14 02:15:33;;;;;;;29.67;3.80;;;7.40;99.90;;;;;;5075168;28;20056;-57
2023/01/14 02:18:04;;;;;;;23.25;3.65;;;7.50;99.90;;;;;;5049841;28;20455;-56
2023/01/14 02:20:36;;;;;;;23.20;3.10;;;7.50;99.90;;;;;;5073226;28;20455;-54
2023/01/14 02:23:40;;;;;;;31.90;3.67;;;7.40;99.90;;;;;;5074264;28;20055;-53
2023/01/14 02:26:30;;;;;;;33.15;3.90;;;7.40;99.90;;;;;;5071388;28;20088;-57
2023/01/14 02:29:38;;;;;;;23.55;3.65;;;7.50;99.90;;;;;;5018348;28;20090;-57
2023/01/14 02:32:10;;;;;;;28.33;3.38;;;7.50;99.90;;;;;;5052872;28;20080;-56
2023/01/14 02:34:40;;;;;;;28.33;4.10;;;7.40;99.90;;;;;;5053730;28;20088;-57
2023/01/14 02:37:09;;;;;;;25.25;3.90;;;7.40;99.90;;;;;;5055404;28;20541;-56
2023/01/14 02:39:37;;;;;;;24.23;3.92;;;7.40;99.90;;;;;;5053853;28;20080;-57
2023/01/14 02:44:54;;;;;;;30.50;4.50;;;7.40;99.90;;;;;;5074630;28;20053;-53
2023/01/14 02:47:23;;;;;;;24.30;3.47;;;7.40;99.90;;;;;;5065084;28;20522;-56
2023/01/14 02:49:51;;;;;;;34.28;3.92;;;7.40;99.90;;;;;;5073572;28;20041;-57
2023/01/14 02:52:18;;;;;;;37.13;4.22;;;7.40;99.90;;;;;;5053778;28;20462;-57
2023/01/14 02:54:53;;;;;;;28.02;4.57;;;7.40;99.90;;;;;;5068695;28;20041;-57
2023/01/14 02:57:26;;;;;;;34.97;4.95;;;7.40;99.90;;;;;;5054878;28;20131;-49
2023/01/14 02:59:53;;;;;;;31.75;4.60;;;7.40;99.90;;;;;;5074036;28;20044;-57
2023/01/14 03:02:43;;;;;;;23.25;3.92;;;7.30;99.90;;;;;;5055122;28;20476;-58
2023/01/14 03:05:16;;;;;;;26.40;4.38;;;7.30;99.90;;;;;;5070622;28;20048;-56
2023/01/14 03:07:45;;;;;;;27.40;3.60;;;7.20;99.90;;;;;;5071596;28;20080;-56
2023/01/14 03:10:16;;;;;;;32.20;4.13;;;7.20;99.90;;;;;;5061878;28;20059;-57
2023/01/14 03:12:44;;;;;;;25.48;4.18;;;7.10;99.90;;;;;;5071919;28;20047;-57
2023/01/14 03:15:17;;;;;;;26.55;4.00;;;7.10;99.90;;;;;;5056550;28;20136;-57
2023/01/14 03:17:46;;;;;;;24.13;4.15;;;7.10;99.90;;;;;;5073740;28;20462;-57
2023/01/14 03:20:15;;;;;;;35.78;3.90;;;7.00;99.90;;;;;;5072321;28;20161;-56
2023/01/14 03:22:42;;;;;;;32.10;3.88;;;7.00;99.90;;;;;;5071766;28;20084;-56
2023/01/14 03:25:09;;;;;;;20.27;3.67;;;7.00;99.90;;;;;;5053855;28;20045;-57
2023/01/14 03:27:36;;;;;;;29.13;4.20;;;6.90;99.90;;;;;;5054059;28;20091;-57
2023/01/14 03:30:05;;;;;;;34.13;4.07;;;6.90;99.90;;;;;;5035930;28;20140;-57
2023/01/14 03:32:34;;;;;;;26.85;4.25;;;6.80;99.90;;;;;;5036332;28;20465;-58
2023/01/14 03:35:05;;;;;;;27.80;3.30;;;6.80;99.90;;;;;;5064499;28;20152;-49
2023/01/14 03:37:32;;;;;;;22.33;3.38;;;6.80;99.90;;;;;;5065502;28;20048;-51
2023/01/14 03:39:59;;;;;;;25.63;3.42;;;6.70;99.90;;;;;;5066041;28;20080;-56
2023/01/14 03:42:28;;;;;;;27.60;3.20;;;6.70;99.90;;;;;;5054769;28;20052;-57
2023/01/14 03:45:00;;;;;;;25.40;4.25;;;6.60;99.90;;;;;;5051102;28;20102;-54
2023/01/14 03:47:28;;;;;;;24.15;3.67;;;6.60;99.90;;;;;;5067081;28;20079;-56
2023/01/14 03:49:55;;;;;;;27.45;3.60;;;6.50;99.90;;;;;;5051352;28;20049;-57
2023/01/14 03:52:29;;;;;;;25.50;3.45;;;6.50;99.90;;;;;;5052995;28;20479;-56
2023/01/14 03:54:58;;;;;;;29.30;3.60;;;6.50;99.90;;;;;;5071085;28;20539;-55
2023/01/14 03:57:26;;;;;;;29.15;3.58;;;6.50;99.90;;;;;;5055775;28;20048;-57
2023/01/14 03:59:56;;;;;;;37.42;4.75;;;6.40;99.90;;;;;;5063179;28;20098;-50
2023/01/14 04:02:23;;;;;;;27.02;4.13;;;6.40;99.90;;;;;;5071704;28;20080;-57
2023/01/14 04:04:50;;;;;;;24.70;3.63;;;6.40;99.90;;;;;;5053800;28;20084;-57
2023/01/14 04:07:16;;;;;;;37.17;3.88;;;6.40;99.90;;;;;;5068447;28;20132;-57
2023/01/14 04:09:44;;;;;;;22.88;3.40;;;6.40;99.90;;;;;;5052946;28;20106;-58
2023/01/14 04:12:11;;;;;;;28.98;4.28;;;6.30;99.90;;;;;;5070560;28;20552;-56
2023/01/14 04:17:22;;;;;;;22.60;3.53;;;6.30;99.90;;;;;;5070476;28;20056;-56
2023/01/14 04:19:49;;;;;;;24.48;3.88;;;6.30;99.90;;;;;;5054272;28;20087;-56
2023/01/14 04:22:16;;;;;;;20.35;2.95;;;6.30;99.90;;;;;;5071404;28;20531;-55
2023/01/14 04:24:43;;;;;;;22.05;3.25;;;6.30;99.90;;;;;;5053595;28;20056;-56
2023/01/14 04:27:11;;;;;;;22.55;3.25;;;6.30;99.90;;;;;;5047454;28;20132;-56
2023/01/14 04:29:38;;;;;;;25.05;3.33;;;6.30;99.90;;;;;;5063341;28;20083;-56
2023/01/14 04:32:04;;;;;;;31.00;3.92;;;6.20;99.90;;;;;;5047324;28;20556;-56
2023/01/14 04:34:31;;;;;;;24.15;3.50;;;6.20;99.90;;;;;;5053469;28;20056;-56
2023/01/14 04:36:58;;;;;;;26.98;3.63;;;6.20;99.90;;;;;;5070885;28;20102;-54
2023/01/14 04:39:25;;;;;;;24.20;3.65;;;6.20;99.90;;;;;;5053247;28;20126;-55
2023/01/14 04:44:37;;;;;;;25.13;3.15;;;6.10;99.90;;;;;;5069134;28;20048;-55
2023/01/14 04:47:04;;;;;;;24.38;3.40;;;6.10;99.90;;;;;;5052763;28;20471;-56
2023/01/14 04:49:31;;;;;;;25.15;4.03;;;6.10;99.90;;;;;;5069370;28;20080;-57
2023/01/14 04:51:58;;;;;;;23.80;4.00;;;6.10;99.90;;;;;;5042976;28;20572;-54
2023/01/14 04:54:24;;;;;;;29.63;3.20;;;6.10;99.90;;;;;;5071854;28;20177;-53
2023/01/14 04:56:51;;;;;;;24.77;3.95;;;6.10;99.90;;;;;;5071000;28;20048;-56
2023/01/14 04:59:18;;;;;;;24.63;3.97;;;6.10;99.90;;;;;;5070648;28;20124;-52
2023/01/14 05:01:46;;;;;;;25.48;3.83;;;6.10;99.90;;;;;;5069763;28;20090;-56
2023/01/14 05:04:13;;;;;;;24.15;4.32;;;6.10;99.90;;;;;;5070956;28;20469;-52
2023/01/14 05:06:40;;;;;;;37.47;5.15;;;6.10;99.90;;;;;;5069281;28;20044;-51
2023/01/14 05:09:07;;;;;;;27.02;4.35;;;6.10;99.90;;;;;;5051574;28;20563;-49
2023/01/14 05:11:33;;;;;;;28.92;4.38;;;6.10;99.90;;;;;;5069736;28;20114;-55
2023/01/14 05:14:00;;;;;;;41.92;4.63;;;6.10;99.90;;;;;;5051142;28;20095;-51
2023/01/14 05:16:27;;;;;;;41.75;5.28;;;6.10;99.90;;;;;;5052856;28;20131;-56
2023/01/14 05:18:56;;;;;;;34.47;4.60;;;6.00;99.90;;;;;;5054570;28;20049;-49
2023/01/14 05:21:24;;;;;;;36.97;5.45;;;6.00;99.90;;;;;;5051676;28;20495;-54
2023/01/14 05:23:50;;;;;;;30.40;5.25;;;6.00;99.90;;;;;;5051311;28;20052;-55
2023/01/14 05:26:17;;;;;;;32.13;4.25;;;6.00;99.90;;;;;;5052190;28;20118;-55
2023/01/14 05:28:44;;;;;;;28.38;4.18;;;6.00;99.90;;;;;;5051839;28;20044;-55
2023/01/14 05:31:11;;;;;;;34.03;5.05;;;6.00;99.90;;;;;;5050838;28;20147;-53
2023/01/14 05:33:38;;;;;;;26.38;4.47;;;6.00;99.90;;;;;;5069779;28;20110;-55
2023/01/14 05:36:07;;;;;;;35.53;5.35;;;5.90;99.90;;;;;;5066992;28;20087;-55
2023/01/14 05:38:33;;;;;;;28.27;4.55;;;6.00;99.90;;;;;;5069076;28;20135;-54
2023/01/14 05:41:00;;;;;;;37.60;5.95;;;5.90;99.90;;;;;;5046120;28;20045;-55
2023/01/14 05:46:15;;;;;;;29.55;5.20;;;6.00;99.90;;;;;;5067939;28;20052;-55
2023/01/14 05:48:42;;;;;;;39.40;6.20;;;5.90;99.90;;;;;;5053215;28;20076;-55
2023/01/14 05:51:12;;;;;;;38.00;5.65;;;6.00;99.90;;;;;;5070283;28;20060;-56
2023/01/14 05:53:39;;;;;;;35.03;5.53;;;5.90;99.90;;;;;;5055491;28;20127;-55
2023/01/14 05:56:07;;;;;;;37.78;5.88;;;5.90;99.90;;;;;;5056273;28;20102;-54
2023/01/14 05:58:34;;;;;;;36.35;6.07;;;5.90;99.90;;;;;;5054399;28;20082;-54
2023/01/14 06:06:34;;;;;;;33.85;6.28;;;5.90;99.90;;;;;;5072364;28;20148;-54
2023/01/14 06:09:02;;;;;;;49.25;6.80;;;5.90;99.90;;;;;;5050603;28;20139;-54
2023/01/14 06:11:32;;;;;;;43.10;7.00;;;5.90;99.90;;;;;;5056487;28;20113;-54
2023/01/14 06:13:59;;;;;;;37.72;6.57;;;5.90;99.90;;;;;;5055348;28;20051;-55
2023/01/14 06:16:27;;;;;;;42.47;6.75;;;5.90;99.90;;;;;;5070327;28;20052;-55
2023/01/14 06:18:54;;;;;;;41.78;7.82;;;5.90;99.90;;;;;;5055169;28;20498;-55
2023/01/14 06:21:21;;;;;;;43.78;7.88;;;5.90;99.90;;;;;;5053738;28;20135;-54
2023/01/14 06:23:49;;;;;;;38.22;7.20;;;5.90;99.90;;;;;;5073405;28;20072;-55
2023/01/14 06:26:17;;;;;;;43.67;7.88;;;5.80;99.90;;;;;;5054175;28;20048;-54
2023/01/14 06:28:44;;;;;;;47.20;7.60;;;5.90;99.90;;;;;;5072291;28;20080;-55
2023/01/14 06:31:11;;;;;;;44.95;7.03;;;5.80;99.90;;;;;;5071145;28;20076;-52
2023/01/14 06:33:38;;;;;;;41.78;7.20;;;5.90;99.90;;;;;;5069742;28;20135;-54
2023/01/14 06:36:06;;;;;;;47.05;6.80;;;5.90;99.90;;;;;;5072780;28;20560;-53
2023/01/14 06:38:33;;;;;;;43.25;7.00;;;5.90;99.90;;;;;;5045377;28;20139;-53
2023/01/14 06:41:02;;;;;;;42.17;7.30;;;5.90;99.90;;;;;;5072169;28;20381;-55
2023/01/14 06:43:28;;;;;;;36.67;6.30;;;5.90;99.90;;;;;;5069642;28;20135;-55
2023/01/14 06:45:55;;;;;;;48.70;7.53;;;5.90;99.90;;;;;;5054028;28;20500;-53
2023/01/14 06:48:22;;;;;;;57.08;6.97;;;5.90;99.90;;;;;;5054517;28;20123;-50
2023/01/14 06:50:49;;;;;;;41.08;7.18;;;5.90;99.90;;;;;;5070857;28;20157;-53
2023/01/14 06:53:16;;;;;;;48.47;7.15;;;5.90;99.90;;;;;;5071182;28;20405;-55
2023/01/14 06:55:42;;;;;;;46.17;7.35;;;5.90;99.90;;;;;;5050660;28;20080;-55
2023/01/14 06:58:11;;;;;;;49.08;6.80;;;6.00;99.90;;;;;;5070072;28;20139;-55
2023/01/14 07:00:37;;;;;;;57.17;9.77;;;5.90;99.90;;;;;;5047287;28;20044;-54
2023/01/14 07:03:04;;;;;;;53.03;7.60;;;6.00;99.90;;;;;;5069103;28;20071;-53
2023/01/14 07:05:31;;;;;;;47.90;7.75;;;6.10;99.90;;;;;;5071651;28;20098;-51
2023/01/14 07:07:58;;;;;;;50.63;7.75;;;6.00;99.90;;;;;;5068652;28;20589;-52
2023/01/14 07:10:25;;;;;;;34.67;7.05;;;6.00;99.90;;;;;;5070386;28;20080;-54
2023/01/14 07:12:52;;;;;;;44.22;7.50;;;6.00;99.90;;;;;;5070340;28;20079;-53
2023/01/14 07:15:20;;;;;;;42.58;7.30;;;6.00;99.90;;;;;;5052161;28;20442;-55
2023/01/14 07:17:48;;;;;;;51.22;7.28;;;6.10;99.90;;;;;;5067457;28;20495;-54
2023/01/14 07:20:15;;;;;;;51.30;6.60;;;6.10;99.90;;;;;;5067962;28;20048;-55
2023/01/14 07:22:42;;;;;;;36.00;7.35;;;6.10;99.90;;;;;;5071081;28;20553;-49
2023/01/14 07:25:09;;;;;;;35.15;5.38;;;6.10;99.90;;;;;;5050570;28;20501;-53
2023/01/14 07:27:36;;;;;;;41.38;6.40;;;6.10;99.90;;;;;;5054600;28;20083;-55
2023/01/14 07:30:03;;;;;;;51.40;7.40;;;6.10;99.90;;;;;;5051223;28;20040;-52
2023/01/14 07:32:33;;;;;;;48.50;7.95;;;6.10;99.90;;;;;;5067991;28;20575;-56
2023/01/14 07:35:00;;;;;;;52.70;7.28;;;6.10;99.90;;;;;;5053257;28;20062;-56
2023/01/14 07:37:27;;;;;;;48.92;6.72;;;6.20;99.90;;;;;;5050346;28;20110;-51
2023/01/14 07:39:54;;;;;;;50.75;7.40;;;6.20;99.90;;;;;;5066247;28;20079;-52
2023/01/14 07:42:21;;;;;;;53.78;7.75;;;6.20;99.90;;;;;;5046783;28;20079;-52
2023/01/14 07:44:47;;;;;;;35.63;6.45;;;6.20;99.90;;;;;;5065810;28;20092;-50
2023/01/14 07:47:15;;;;;;;40.72;7.60;;;6.20;99.90;;;;;;5048571;28;20495;-55
2023/01/14 07:49:43;;;;;;;54.30;7.70;;;6.20;99.90;;;;;;5049811;28;20052;-53
2023/01/14 07:52:12;;;;;;;44.92;6.88;;;6.30;99.90;;;;;;5075044;28;20084;-53
2023/01/14 07:54:39;;;;;;;42.97;7.10;;;6.30;99.90;;;;;;5052098;28;20048;-47
2023/01/14 07:57:06;;;;;;;43.42;6.90;;;6.30;99.90;;;;;;5046022;28;20047;-49
2023/01/14 07:59:33;;;;;;;34.97;6.28;;;6.30;99.90;;;;;;5067215;28;20136;-52
2023/01/14 08:02:00;;;;;;;41.75;6.38;;;6.40;99.90;;;;;;5069469;28;20547;-47
2023/01/14 08:04:26;;;;;;;43.13;6.55;;;6.30;99.90;;;;;;5048473;28;20088;-53
2023/01/14 08:06:56;;;;;;;36.25;5.72;;;6.40;99.90;;;;;;5041566;28;20133;-54
2023/01/14 08:09:23;;;;;;;43.38;5.82;;;6.40;99.90;;;;;;5054028;28;20463;-55
2023/01/14 08:11:50;;;;;;;46.40;6.88;;;6.40;99.90;;;;;;5069458;28;20098;-53
2023/01/14 08:14:17;;;;;;;47.90;10.23;;;6.40;99.90;;;;;;5058621;28;20040;-59
2023/01/14 08:16:43;;;;;;;43.88;10.95;;;6.40;99.90;;;;;;5037514;28;20099;-58
2023/01/14 08:19:12;;;;;;;42.13;6.68;;;6.40;99.90;;;;;;5058146;28;20140;-61
2023/01/14 08:21:38;;;;;;;36.35;6.75;;;6.40;99.90;;;;;;5051651;28;20083;-61
2023/01/14 08:24:07;;;;;;;28.85;5.65;;;6.40;99.90;;;;;;5088343;28;20063;-63
2023/01/14 08:26:34;;;;;;;36.92;5.85;;;6.40;99.90;;;;;;5037893;28;20072;-61
2023/01/14 08:29:01;;;;;;;41.95;6.40;;;6.40;99.90;;;;;;5046899;28;20083;-57
2023/01/14 08:31:28;;;;;;;35.80;5.75;;;6.40;99.90;;;;;;5049956;28;20048;-60
2023/01/14 08:33:55;;;;;;;34.58;5.55;;;6.40;99.90;;;;;;5052647;28;20118;-60
2023/01/14 08:36:22;;;;;;;38.67;5.25;;;6.40;99.90;;;;;;5055487;28;20052;-64
2023/01/14 08:38:49;;;;;;;38.83;5.95;;;6.40;99.90;;;;;;5047088;28;20068;-64
2023/01/14 08:41:17;;;;;;;36.42;5.82;;;6.40;99.90;;;;;;5066370;28;20055;-58
2023/01/14 08:43:46;;;;;;;32.88;4.38;;;6.30;99.90;;;;;;5053535;28;20562;-62
2023/01/14 08:46:13;;;;;;;37.42;5.32;;;6.40;99.90;;;;;;5050898;28;20076;-62
2023/01/14 08:48:40;;;;;;;34.83;5.68;;;6.40;99.90;;;;;;5039286;28;20044;-61
2023/01/14 08:51:08;;;;;;;39.08;5.07;;;6.40;99.90;;;;;;5071480;28;20072;-57
2023/01/14 08:53:36;;;;;;;35.55;5.82;;;6.40;99.90;;;;;;5071024;28;20084;-62
2023/01/14 08:56:03;;;;;;;33.45;5.90;;;6.40;99.90;;;;;;5060513;28;20408;-63
2023/01/14 08:58:31;;;;;;;38.50;5.38;;;6.30;99.90;;;;;;5054335;28;20488;-62
2023/01/14 09:00:58;;;;;;;33.75;5.68;;;6.40;99.90;;;;;;5037396;28;20084;-62
2023/01/14 09:03:27;;;;;;;38.55;6.18;;;6.40;99.90;;;;;;5053335;28;20088;-60
2023/01/14 09:05:56;;;;;;;39.67;5.00;;;6.30;99.90;;;;;;5052497;28;20492;-62
2023/01/14 09:19:22;;;;;;;31.20;4.78;;;6.40;99.90;;;;;;5070367;28;20048;-56
2023/01/14 09:21:49;;;;;;;26.67;4.28;;;6.40;99.90;;;;;;5058483;28;20139;-61
2023/01/14 09:24:16;;;;;;;27.80;4.60;;;6.30;99.90;;;;;;5068405;28;20106;-61
2023/01/14 09:26:42;;;;;;;26.60;4.35;;;6.40;99.90;;;;;;5051204;28;20088;-64
2023/01/14 09:29:10;;;;;;;28.75;4.50;;;6.40;99.90;;;;;;5062959;28;20437;-63
2023/01/14 09:31:37;;;;;;;20.67;3.92;;;6.40;99.90;;;;;;5069416;28;20069;-63
2023/01/14 09:34:04;;;;;;;26.80;4.47;;;6.40;99.90;;;;;;5068187;28;20060;-60
2023/01/14 09:36:31;;;;;;;31.48;5.45;;;6.40;99.90;;;;;;5055037;28;20458;-61
2023/01/14 09:38:58;;;;;;;24.38;4.57;;;6.40;99.90;;;;;;5069035;28;20056;-61
2023/01/14 09:41:26;;;;;;;27.67;6.28;;;6.40;99.90;;;;;;5042594;28;20048;-60
2023/01/14 09:43:52;;;;;;;22.30;6.75;;;6.40;99.90;;;;;;5062821;28;20084;-60
2023/01/14 09:46:21;;;;;;;27.25;6.13;;;6.40;99.90;;;;;;5069605;28;20049;-61
2023/01/14 09:48:48;;;;;;;23.50;5.47;;;6.50;99.90;;;;;;5062740;28;20080;-63
2023/01/14 09:51:39;;;;;;;22.60;5.28;;;6.50;99.90;;;;;;5067613;28;20052;-60
2023/01/14 09:54:08;;;;;;;22.17;3.78;;;6.50;99.90;;;;;;5067421;28;20048;-60
2023/01/14 09:56:36;;;;;;;19.85;4.03;;;6.50;99.90;;;;;;5070056;28;20135;-64
2023/01/14 09:59:07;;;;;;;16.92;3.25;;;6.50;99.90;;;;;;5040107;28;20045;-62
2023/01/14 10:01:37;;;;;;;12.30;3.22;;;6.60;99.90;;;;;;5043867;28;20096;-57
2023/01/14 10:04:10;;;;;;;16.83;3.72;;;6.60;99.90;;;;;;5055576;28;20098;-62
2023/01/14 10:06:38;;;;;;;16.63;3.72;;;6.60;99.90;;;;;;5044632;28;20542;-64
2023/01/14 10:09:07;;;;;;;15.27;3.33;;;6.60;99.90;;;;;;5073670;28;20052;-61
2023/01/14 10:11:37;;;;;;;15.82;2.97;;;6.60;99.90;;;;;;5051296;28;20080;-64
2023/01/14 10:14:07;;;;;;;15.05;3.20;;;6.70;99.90;;;;;;5051430;28;20067;-63
2023/01/14 10:16:38;;;;;;;15.00;3.47;;;6.70;99.90;;;;;;5066168;28;20080;-63
2023/01/14 10:19:05;;;;;;;17.20;3.30;;;6.70;99.90;;;;;;5070354;28;20515;-63
2023/01/14 10:21:38;;;;;;;14.88;2.67;;;6.70;99.90;;;;;;5069186;28;20315;-65
2023/01/14 10:24:05;;;;;;;15.68;3.80;;;6.90;99.90;;;;;;5069897;28;20040;-63
2023/01/14 10:26:32;;;;;;;9.25;3.00;;;6.80;99.90;;;;;;5066996;28;20098;-62
2023/01/14 10:29:00;;;;;;;13.32;3.10;;;6.80;99.90;;;;;;5067063;28;20079;-63
2023/01/14 10:31:28;;;;;;;11.52;2.78;;;6.80;99.90;;;;;;5065903;28;20135;-60
2023/01/14 10:33:57;;;;;;;11.07;2.58;;;6.80;99.90;;;;;;5048276;28;20095;-55
2023/01/14 10:36:24;;;;;;;10.95;2.88;;;6.90;99.90;;;;;;5051251;28;20112;-62
2023/01/14 10:38:51;;;;;;;16.20;3.03;;;6.90;99.90;;;;;;5063807;28;20333;-61
2023/01/14 10:41:48;;;;;;;13.63;2.80;;;7.00;99.90;;;;;;5062869;28;20130;-61
2023/01/14 10:44:05;;;;;;;8.75;2.35;;;6.90;99.90;;;;;;5066686;28;20049;-62
2023/01/14 10:46:31;;;;;;;8.05;2.67;;;6.90;99.90;;;;;;5072464;28;20132;-61
2023/01/14 10:49:01;;;;;;;12.65;3.08;;;7.00;99.90;;;;;;5050689;28;20084;-63
2023/01/14 10:51:35;;;;;;;10.98;2.60;;;7.00;99.90;;;;;;5051937;28;20455;-65
2023/01/14 10:54:13;;;;;;;9.43;2.33;;;7.00;99.90;;;;;;5066584;28;20131;-62
2023/01/14 10:56:41;;;;;;;6.32;2.22;;;7.10;99.90;;;;;;5068528;28;20041;-55
2023/01/14 10:59:30;;;;;;;15.50;2.95;;;7.10;99.90;;;;;;5052693;28;20513;-60
2023/01/14 11:01:57;;;;;;;7.55;2.72;;;7.10;99.90;;;;;;5067621;28;20158;-62
2023/01/14 11:04:27;;;;;;;9.82;3.33;;;7.10;99.90;;;;;;5071744;28;20671;-62
2023/01/14 11:06:54;;;;;;;10.88;3.80;;;7.10;99.90;;;;;;5065014;28;20549;-60
2023/01/14 11:09:23;;;;;;;9.98;3.15;;;7.20;99.90;;;;;;5044484;28;20561;-60
2023/01/14 11:11:50;;;;;;;9.50;3.30;;;7.20;99.90;;;;;;5050219;28;20045;-61
2023/01/14 11:14:27;;;;;;;9.23;3.08;;;7.20;99.90;;;;;;5047171;28;20056;-64
2023/01/14 11:16:57;;;;;;;9.30;2.67;;;7.30;99.90;;;;;;5064236;28;20500;-65
2023/01/14 11:19:24;;;;;;;11.15;2.65;;;7.30;99.90;;;;;;5071882;28;20469;-62
2023/01/14 11:21:53;;;;;;;11.68;2.92;;;7.30;99.90;;;;;;5059681;28;20053;-55
2023/01/14 11:24:35;;;;;;;13.15;3.13;;;7.30;99.90;;;;;;5050643;28;20060;-63
2023/01/14 11:27:02;;;;;;;10.73;2.85;;;7.30;99.90;;;;;;5062972;28;20057;-63
2023/01/14 11:29:30;;;;;;;8.00;2.83;;;7.30;99.90;;;;;;5065328;28;20080;-60
2023/01/14 11:31:57;;;;;;;9.13;2.80;;;7.40;99.90;;;;;;5042281;28;20092;-56
2023/01/14 11:34:28;;;;;;;8.43;2.40;;;7.30;99.90;;;;;;5047081;28;21424;-60
2023/01/14 11:37:04;;;;;;;6.38;2.47;;;7.30;99.90;;;;;;5042140;28;20076;-61
2023/01/14 11:39:31;;;;;;;6.45;2.20;;;7.40;99.90;;;;;;5061858;28;20053;-63
2023/01/14 11:41:58;;;;;;;10.27;2.38;;;7.40;99.90;;;;;;5063977;28;20072;-57
2023/01/14 11:44:28;;;;;;;11.82;2.30;;;7.40;99.90;;;;;;5062684;28;20060;-60
2023/01/14 11:47:13;;;;;;;12.75;3.45;;;7.40;99.90;;;;;;5072379;28;20377;-62
2023/01/14 11:49:40;;;;;;;7.57;2.28;;;7.50;99.90;;;;;;5065657;28;20059;-60
2023/01/14 11:52:18;;;;;;;11.00;2.20;;;7.40;99.90;;;;;;5065740;28;20462;-54
2023/01/14 11:54:47;;;;;;;3.92;1.58;;;7.50;99.90;;;;;;5068939;28;20481;-55
2023/01/14 11:57:15;;;;;;;7.85;2.25;;;7.50;99.90;;;;;;5061375;28;20075;-60
2023/01/14 11:59:42;;;;;;;5.25;1.80;;;7.50;99.90;;;;;;5052251;28;20487;-64
2023/01/14 12:02:13;;;;;;;7.68;3.15;;;7.50;99.90;;;;;;5066256;28;20548;-63
2023/01/14 12:04:43;;;;;;;8.33;3.13;;;7.50;99.90;;;;;;5066437;28;20102;-56
2023/01/14 12:07:12;;;;;;;10.65;3.35;;;7.50;99.90;;;;;;5066672;28;20306;-63
2023/01/14 12:09:47;;;;;;;10.43;2.70;;;7.60;99.90;;;;;;5048802;28;20094;-63
2023/01/14 12:12:16;;;;;;;7.40;2.05;;;7.60;99.90;;;;;;5065694;28;20199;-63
2023/01/14 12:17:29;;;;;;;5.53;1.77;;;7.70;99.90;;;;;;5065584;28;20419;-63
2023/01/14 12:19:58;;;;;;;8.52;2.45;;;7.70;99.90;;;;;;5055753;28;20053;-60
2023/01/14 12:22:29;;;;;;;6.88;2.92;;;7.70;99.90;;;;;;5054580;28;20048;-64
2023/01/14 12:25:16;;;;;;;6.73;2.60;;;7.80;99.90;;;;;;5056088;28;20182;-63
2023/01/14 12:27:48;;;;;;;8.38;3.03;;;7.80;99.90;;;;;;5049221;28;20303;-63
2023/01/14 12:30:34;;;;;;;10.23;3.03;;;7.90;99.90;;;;;;5051030;28;20053;-62
2023/01/14 12:33:03;;;;;;;6.40;2.40;;;7.90;99.90;;;;;;5058366;28;20553;-64
2023/01/14 12:35:33;;;;;;;9.80;2.90;;;7.90;99.90;;;;;;5070519;28;20514;-63
2023/01/14 12:38:04;;;;;;;8.43;2.08;;;7.90;99.90;;;;;;5047328;28;20057;-64
2023/01/14 12:46:08;;;;;;;8.60;2.38;;;8.00;99.90;;;;;;5046665;28;20048;-66
2023/01/14 12:48:35;;;;;;;9.27;2.22;;;8.10;99.90;;;;;;5039597;28;20561;-61
2023/01/14 12:51:03;;;;;;;5.95;2.00;;;8.20;99.90;;;;;;5063507;28;20080;-61
2023/01/14 12:53:33;;;;;;;3.65;1.67;;;8.20;99.90;;;;;;5039633;28;20133;-64
2023/01/14 12:56:01;;;;;;;2.53;0.90;;;8.20;99.90;;;;;;5062526;28;20127;-56
2023/01/14 12:58:30;;;;;;;7.47;1.60;;;8.30;99.90;;;;;;5066986;28;20163;-60
2023/01/14 13:00:57;;;;;;;4.93;1.60;;;8.40;99.90;;;;;;5066326;28;20076;-59
2023/01/14 13:03:27;;;;;;;2.88;1.40;;;8.40;99.90;;;;;;5061924;28;20048;-56
2023/01/14 13:05:54;;;;;;;4.50;2.00;;;8.40;99.90;;;;;;5051206;28;20048;-59
2023/01/14 13:08:22;;;;;;;5.25;1.77;;;8.40;99.90;;;;;;5052959;28;20047;-55
2023/01/14 13:10:59;;;;;;;4.63;1.70;;;8.50;99.90;;;;;;5065009;28;20088;-58
2023/01/14 13:13:26;;;;;;;3.05;1.48;;;8.50;99.90;;;;;;5051269;28;20080;-60
2023/01/14 13:15:52;;;;;;;5.70;1.90;;;8.50;99.90;;;;;;5051697;28;20072;-55
2023/01/14 13:18:40;;;;;;;4.47;1.60;;;8.60;99.90;;;;;;5070023;28;20074;-59
2023/01/14 13:21:08;;;;;;;3.70;1.70;;;8.60;99.90;;;;;;5050274;28;20135;-59
2023/01/14 13:23:57;;;;;;;3.78;1.75;;;8.60;99.90;;;;;;5043904;28;20135;-58
2023/01/14 13:26:56;;;;;;;5.55;1.77;;;8.70;99.90;;;;;;5053382;28;20040;-59
2023/01/14 13:29:25;;;;;;;4.10;1.60;;;8.70;99.90;;;;;;5063745;28;20182;-57
2023/01/14 13:31:52;;;;;;;3.50;2.10;;;8.70;99.90;;;;;;5061350;28;20496;-58
2023/01/14 13:35:01;;;;;;;4.82;1.45;;;8.70;99.90;;;;;;5068339;28;20124;-60